Time;durP1;ratioP1;P1;durP2;ratioP2;P2;SDS_P1;SDS_P2;PMS_P1;PMS_P2;Temp;Humidity;BMP_temperature;BMP_pressure;BME280_temperature;BME280_humidity;BME280_pressure;Samples;Min_cycle;Max_cycle;Signal;HPM_P1;HPM_P2
2021/03/01 00:00:13;;;;;;;6.20;1.48;;;17.20;52.80;;;;;;4932378;29;20185;-81
2021/03/01 00:02:41;;;;;;;10.77;1.52;;;17.20;52.80;;;;;;4931372;29;20206;-81
2021/03/01 00:05:13;;;;;;;4.75;1.58;;;17.20;52.80;;;;;;4947296;29;20154;-81
2021/03/01 00:07:39;;;;;;;4.90;1.20;;;17.20;52.90;;;;;;4932339;29;20166;-81
2021/03/01 00:10:05;;;;;;;7.93;1.50;;;17.10;53.00;;;;;;4931349;29;20190;-81
2021/03/01 00:12:34;;;;;;;8.52;1.50;;;17.20;52.90;;;;;;4947883;29;20217;-81
2021/03/01 00:15:00;;;;;;;11.52;1.85;;;17.10;52.80;;;;;;4947894;29;20281;-81
2021/03/01 00:17:27;;;;;;;4.85;1.33;;;17.20;53.00;;;;;;4947539;29;20177;-82
2021/03/01 00:19:52;;;;;;;8.73;1.48;;;17.20;52.80;;;;;;4947331;29;20694;-83
2021/03/01 00:22:25;;;;;;;7.95;1.35;;;17.20;52.90;;;;;;4931042;29;20210;-81
2021/03/01 00:24:52;;;;;;;8.07;1.40;;;17.20;52.90;;;;;;4946869;29;20653;-81
2021/03/01 00:27:19;;;;;;;8.27;1.60;;;17.10;52.90;;;;;;4930800;29;20170;-81
2021/03/01 00:29:45;;;;;;;6.85;1.60;;;17.20;52.70;;;;;;4931462;29;20166;-81
2021/03/01 00:32:11;;;;;;;6.65;1.75;;;17.20;52.90;;;;;;4932160;29;20174;-81
2021/03/01 00:34:38;;;;;;;11.95;1.58;;;17.10;52.90;;;;;;4931244;29;20170;-81
2021/03/01 00:37:06;;;;;;;6.10;1.27;;;17.10;53.00;;;;;;4932017;29;20645;-82
2021/03/01 00:39:33;;;;;;;7.25;1.65;;;17.10;52.90;;;;;;4931847;29;20202;-81
2021/03/01 00:41:59;;;;;;;6.32;1.33;;;17.10;52.90;;;;;;4947586;29;20197;-81
2021/03/01 00:44:26;;;;;;;7.72;1.60;;;17.10;52.80;;;;;;4948088;29;20186;-82
2021/03/01 00:46:53;;;;;;;6.53;1.58;;;17.10;52.90;;;;;;4931091;29;20162;-83
2021/03/01 00:49:19;;;;;;;4.78;1.42;;;17.20;52.80;;;;;;4946985;29;20154;-82
2021/03/01 00:51:45;;;;;;;6.22;1.50;;;17.10;53.00;;;;;;4947521;29;20249;-81
2021/03/01 00:54:13;;;;;;;7.03;1.58;;;17.10;52.90;;;;;;4947606;29;20159;-81
2021/03/01 00:56:39;;;;;;;3.50;1.20;;;17.10;53.00;;;;;;4931667;29;20166;-82
2021/03/01 00:59:07;;;;;;;4.90;1.40;;;17.10;52.90;;;;;;4947010;29;20163;-82
2021/03/01 01:01:34;;;;;;;6.50;1.38;;;17.10;53.00;;;;;;4946693;29;20169;-82
2021/03/01 01:04:00;;;;;;;6.28;1.58;;;17.10;52.90;;;;;;4948058;29;20166;-82
2021/03/01 01:06:30;;;;;;;8.40;1.50;;;17.10;52.80;;;;;;4930808;29;20579;-82
2021/03/01 01:08:57;;;;;;;7.85;1.77;;;17.10;52.80;;;;;;4931368;29;20182;-82
2021/03/01 01:11:28;;;;;;;3.90;1.30;;;17.10;52.90;;;;;;4946843;29;20254;-82
2021/03/01 01:13:56;;;;;;;6.68;1.52;;;17.10;53.00;;;;;;4930978;29;20213;-82
2021/03/01 01:16:22;;;;;;;5.13;1.30;;;17.10;53.00;;;;;;4949152;29;20253;-82
2021/03/01 01:18:48;;;;;;;6.45;1.40;;;17.10;53.00;;;;;;4934854;29;20615;-82
2021/03/01 01:21:15;;;;;;;5.22;1.58;;;16.90;53.00;;;;;;4950671;29;20158;-81
2021/03/01 01:23:41;;;;;;;6.85;1.52;;;17.10;52.90;;;;;;4950396;29;20230;-81
2021/03/01 01:26:08;;;;;;;5.82;1.65;;;17.00;53.00;;;;;;4934866;29;20162;-82
2021/03/01 01:28:35;;;;;;;5.15;1.65;;;17.00;53.00;;;;;;4935053;29;20174;-81
2021/03/01 01:31:01;;;;;;;6.30;1.50;;;17.00;53.00;;;;;;4935162;29;20166;-81
2021/03/01 01:33:30;;;;;;;9.30;1.30;;;17.00;53.00;;;;;;4934539;29;20185;-82
2021/03/01 01:35:56;;;;;;;7.95;1.50;;;17.00;53.00;;;;;;4950838;29;20170;-82
2021/03/01 01:38:23;;;;;;;10.40;1.30;;;17.00;53.00;;;;;;4934252;29;20181;-82
2021/03/01 01:40:52;;;;;;;8.05;1.40;;;17.10;53.10;;;;;;4934768;29;20169;-81
2021/03/01 01:43:28;;;;;;;3.22;1.35;;;17.10;53.00;;;;;;4951026;29;20185;-82
2021/03/01 01:45:58;;;;;;;5.38;1.30;;;17.00;52.90;;;;;;4934898;29;20173;-82
2021/03/01 01:48:24;;;;;;;3.92;1.25;;;17.00;53.00;;;;;;4934410;29;20174;-83
2021/03/01 01:50:51;;;;;;;8.02;1.40;;;17.00;53.10;;;;;;4934439;29;20626;-82
2021/03/01 01:53:21;;;;;;;7.47;1.58;;;17.00;53.10;;;;;;4934086;29;20178;-82
2021/03/01 01:55:50;;;;;;;4.97;1.55;;;17.00;53.20;;;;;;4949757;29;20163;-82
2021/03/01 01:58:17;;;;;;;6.75;1.20;;;17.00;53.20;;;;;;4949548;29;20194;-81
2021/03/01 02:00:47;;;;;;;5.10;1.30;;;17.00;53.10;;;;;;4918193;29;20174;-81
2021/03/01 02:03:35;;;;;;;5.82;1.45;;;17.00;53.00;;;;;;4933924;29;20194;-82
2021/03/01 02:06:10;;;;;;;3.13;1.30;;;17.00;53.10;;;;;;4949232;29;20174;-81
2021/03/01 02:08:46;;;;;;;4.30;1.33;;;17.00;53.30;;;;;;4934807;29;20197;-81
2021/03/01 02:12:00;;;;;;;4.55;1.50;;;17.00;53.30;;;;;;4949404;29;20541;-82
2021/03/01 02:14:34;;;;;;;8.27;1.50;;;17.00;53.20;;;;;;4886035;29;20790;-82
2021/03/01 02:17:02;;;;;;;5.25;1.40;;;17.00;53.30;;;;;;4861706;29;20203;-82
2021/03/01 02:19:28;;;;;;;5.45;1.35;;;16.90;53.20;;;;;;4861311;29;20204;-81
2021/03/01 02:21:55;;;;;;;3.75;1.30;;;16.90;53.30;;;;;;4860733;29;20203;-82
2021/03/01 02:24:43;;;;;;;5.40;1.30;;;17.00;53.30;;;;;;4861114;29;20192;-82
2021/03/01 02:27:11;;;;;;;5.10;1.35;;;17.00;53.30;;;;;;4860837;29;20174;-82
2021/03/01 02:29:37;;;;;;;6.75;1.52;;;17.00;53.30;;;;;;4861195;29;20172;-82
2021/03/01 02:32:04;;;;;;;5.88;1.55;;;16.90;53.30;;;;;;4860951;29;20195;-82
2021/03/01 02:34:33;;;;;;;6.63;1.75;;;16.90;53.80;;;;;;4860871;29;20194;-82
2021/03/01 02:36:59;;;;;;;5.95;1.55;;;16.90;53.20;;;;;;4876606;29;20184;-82
2021/03/01 02:39:26;;;;;;;4.85;1.67;;;17.00;53.30;;;;;;4861205;29;20379;-82
2021/03/01 02:41:54;;;;;;;6.65;1.50;;;16.90;53.30;;;;;;4861481;29;20208;-82
2021/03/01 02:44:26;;;;;;;6.20;1.25;;;17.00;53.00;;;;;;4860829;29;20750;-82
2021/03/01 02:46:51;;;;;;;6.70;1.55;;;17.00;53.10;;;;;;4861472;29;20168;-82
2021/03/01 02:49:17;;;;;;;5.68;1.42;;;16.90;53.10;;;;;;4860789;29;20187;-82
2021/03/01 02:51:45;;;;;;;6.30;1.38;;;16.90;53.10;;;;;;4913499;29;20173;-82
2021/03/01 02:54:15;;;;;;;4.43;1.30;;;16.90;53.10;;;;;;4914198;29;20697;-81
2021/03/01 02:56:41;;;;;;;4.40;1.35;;;17.00;53.20;;;;;;4929521;29;20162;-81
2021/03/01 02:59:08;;;;;;;6.85;1.58;;;16.90;53.20;;;;;;4929769;29;20175;-82
2021/03/01 03:01:34;;;;;;;7.50;1.33;;;16.90;53.30;;;;;;4913878;29;20295;-82
2021/03/01 03:04:02;;;;;;;7.47;1.45;;;16.90;53.30;;;;;;4914444;29;20195;-82
2021/03/01 03:06:30;;;;;;;5.78;1.50;;;16.90;53.20;;;;;;4914809;29;20186;-82
2021/03/01 03:08:56;;;;;;;8.55;1.70;;;16.90;53.20;;;;;;4914856;29;20167;-81
2021/03/01 03:11:32;;;;;;;5.05;1.63;;;16.90;53.20;;;;;;4913993;29;20189;-81
2021/03/01 03:13:58;;;;;;;6.47;1.38;;;16.90;53.30;;;;;;4926692;29;20241;-82
2021/03/01 03:16:25;;;;;;;4.50;1.35;;;16.90;53.30;;;;;;4936151;29;20249;-82
2021/03/01 03:18:56;;;;;;;5.65;1.52;;;16.90;53.30;;;;;;4935929;29;20174;-82
2021/03/01 03:21:31;;;;;;;6.47;1.67;;;16.90;53.10;;;;;;4936075;29;20197;-82
2021/03/01 03:23:58;;;;;;;6.72;1.58;;;16.90;53.20;;;;;;4935866;29;20200;-82
2021/03/01 03:26:25;;;;;;;5.22;1.40;;;16.90;53.40;;;;;;4936384;29;20165;-82
2021/03/01 03:28:54;;;;;;;4.10;1.35;;;16.90;53.30;;;;;;4935929;29;20177;-82
2021/03/01 03:31:26;;;;;;;2.58;1.27;;;16.80;53.30;;;;;;4935975;29;20264;-81
2021/03/01 03:33:53;;;;;;;5.32;1.80;;;16.90;53.40;;;;;;4936080;29;20177;-82
2021/03/01 03:36:29;;;;;;;4.57;1.33;;;16.90;53.30;;;;;;4935927;29;20181;-82
2021/03/01 03:39:06;;;;;;;5.70;1.25;;;16.80;53.40;;;;;;4950767;29;20161;-81
2021/03/01 03:41:32;;;;;;;3.80;1.13;;;16.90;53.40;;;;;;4951992;29;20165;-81
2021/03/01 03:44:04;;;;;;;4.90;1.10;;;16.90;53.30;;;;;;4935550;29;20173;-82
2021/03/01 03:46:30;;;;;;;6.35;1.40;;;16.80;53.40;;;;;;4951595;29;20221;-82
2021/03/01 03:48:56;;;;;;;6.75;1.42;;;16.80;53.40;;;;;;4936335;29;20636;-82
2021/03/01 03:51:22;;;;;;;3.45;1.33;;;16.80;53.40;;;;;;4935348;29;20596;-81
2021/03/01 03:53:51;;;;;;;4.05;1.30;;;16.80;53.30;;;;;;4935515;29;20229;-82
2021/03/01 03:56:25;;;;;;;6.43;1.63;;;16.80;53.30;;;;;;4935872;29;20185;-82
2021/03/01 03:58:57;;;;;;;8.88;1.45;;;16.80;53.40;;;;;;4935768;29;20169;-81
2021/03/01 04:01:24;;;;;;;2.50;1.13;;;16.80;53.50;;;;;;4936022;29;20200;-82
2021/03/01 04:03:52;;;;;;;2.80;1.00;;;16.80;53.40;;;;;;4935495;29;20653;-81
2021/03/01 04:06:19;;;;;;;8.10;1.35;;;16.80;53.40;;;;;;4936088;29;20177;-82
2021/03/01 04:08:49;;;;;;;5.10;1.30;;;16.80;53.30;;;;;;4935988;29;20257;-82
2021/03/01 04:11:26;;;;;;;4.63;1.33;;;16.80;53.40;;;;;;4935360;29;20176;-81
2021/03/01 04:13:54;;;;;;;4.05;1.42;;;16.80;53.50;;;;;;4935434;29;20212;-81
2021/03/01 04:16:21;;;;;;;4.25;1.20;;;16.80;53.50;;;;;;4951995;29;20169;-82
2021/03/01 04:18:49;;;;;;;3.72;1.30;;;16.80;53.50;;;;;;4935658;29;20170;-82
2021/03/01 04:21:17;;;;;;;3.92;1.30;;;16.80;53.50;;;;;;4935214;29;20197;-81
2021/03/01 04:23:46;;;;;;;4.03;1.10;;;16.70;53.60;;;;;;4935183;29;20240;-81
2021/03/01 04:26:13;;;;;;;5.68;1.35;;;16.70;53.60;;;;;;4935358;29;20169;-82
2021/03/01 04:28:40;;;;;;;7.72;1.48;;;16.80;53.50;;;;;;4935085;29;20236;-82
2021/03/01 04:31:07;;;;;;;4.28;1.30;;;16.70;53.50;;;;;;4934921;29;20177;-81
2021/03/01 04:33:34;;;;;;;4.20;1.20;;;16.80;53.60;;;;;;4934864;29;20173;-82
2021/03/01 04:36:03;;;;;;;2.92;1.30;;;16.80;53.40;;;;;;4934869;29;20264;-82
2021/03/01 04:38:35;;;;;;;5.50;1.20;;;16.80;53.40;;;;;;4934427;29;20202;-82
2021/03/01 04:41:03;;;;;;;3.13;1.10;;;16.80;53.40;;;;;;4935161;29;20176;-82
2021/03/01 04:43:38;;;;;;;4.20;1.20;;;16.80;53.30;;;;;;4950095;29;20240;-82
2021/03/01 04:46:04;;;;;;;3.78;1.10;;;16.80;53.40;;;;;;4950050;29;20162;-82
2021/03/01 04:48:30;;;;;;;2.85;1.17;;;16.80;53.40;;;;;;4950048;29;20157;-81
2021/03/01 04:50:57;;;;;;;5.43;1.38;;;16.70;53.30;;;;;;4934255;29;20177;-81
2021/03/01 04:53:23;;;;;;;2.20;1.30;;;16.70;53.40;;;;;;4950479;29;20166;-81
2021/03/01 04:55:51;;;;;;;3.83;1.30;;;16.80;53.50;;;;;;4950287;29;20204;-82
2021/03/01 04:58:17;;;;;;;4.15;1.15;;;16.80;53.20;;;;;;4933147;29;20177;-81
2021/03/01 05:00:44;;;;;;;4.68;1.35;;;16.90;53.20;;;;;;4934230;29;20212;-81
2021/03/01 05:03:11;;;;;;;4.13;1.20;;;16.80;53.10;;;;;;4933292;29;20289;-81
2021/03/01 05:05:38;;;;;;;6.97;1.50;;;16.80;52.90;;;;;;4934407;29;20166;-82
2021/03/01 05:08:05;;;;;;;4.43;1.40;;;16.90;52.60;;;;;;4950398;29;20169;-81
2021/03/01 05:10:31;;;;;;;4.53;1.17;;;16.90;52.30;;;;;;4934150;29;20177;-81
2021/03/01 05:13:03;;;;;;;3.22;1.23;;;16.90;52.60;;;;;;4934549;29;20177;-81
2021/03/01 05:15:29;;;;;;;3.35;1.10;;;16.90;52.30;;;;;;4896817;29;20206;-82
2021/03/01 05:17:59;;;;;;;3.83;1.10;;;16.90;52.10;;;;;;4910807;29;20234;-81
2021/03/01 05:20:25;;;;;;;6.95;1.75;;;17.00;52.20;;;;;;4912016;29;20171;-81
2021/03/01 05:22:51;;;;;;;4.10;1.20;;;17.00;52.90;;;;;;4896173;29;20270;-81
2021/03/01 05:25:17;;;;;;;3.28;1.25;;;17.00;51.90;;;;;;4910950;29;20174;-81
2021/03/01 05:27:46;;;;;;;5.78;1.20;;;17.10;52.10;;;;;;4896416;29;20175;-81
2021/03/01 05:30:13;;;;;;;4.15;1.10;;;17.10;51.60;;;;;;4896415;29;20257;-81
2021/03/01 05:32:38;;;;;;;4.63;1.55;;;17.10;51.60;;;;;;4911456;29;20166;-81
2021/03/01 05:35:08;;;;;;;3.97;1.05;;;17.10;51.70;;;;;;4910528;29;20207;-82
2021/03/01 05:37:36;;;;;;;2.35;1.17;;;17.10;51.90;;;;;;4911387;29;20171;-82
2021/03/01 05:40:04;;;;;;;3.58;1.20;;;17.00;51.70;;;;;;4896131;29;20167;-82
2021/03/01 05:42:31;;;;;;;3.65;1.08;;;17.00;51.90;;;;;;4911675;29;20195;-82
2021/03/01 05:44:58;;;;;;;3.17;1.33;;;17.00;51.70;;;;;;4895349;29;20606;-81
2021/03/01 05:47:25;;;;;;;3.00;1.23;;;17.00;51.90;;;;;;4911767;29;20163;-81
2021/03/01 05:49:51;;;;;;;4.35;1.15;;;17.10;51.20;;;;;;4896135;29;20193;-81
2021/03/01 05:52:17;;;;;;;2.80;1.13;;;17.10;51.60;;;;;;4895818;29;20601;-81
2021/03/01 05:54:44;;;;;;;2.80;1.23;;;17.10;51.40;;;;;;4911552;29;20214;-81
2021/03/01 05:57:11;;;;;;;3.00;1.20;;;17.10;51.40;;;;;;4911370;29;20170;-81
2021/03/01 05:59:37;;;;;;;3.42;1.23;;;17.10;51.40;;;;;;4906178;29;20197;-82
2021/03/01 06:02:09;;;;;;;3.08;1.00;;;17.10;51.00;;;;;;4893653;29;20195;-82
2021/03/01 06:04:38;;;;;;;4.00;1.30;;;17.10;51.00;;;;;;4911824;29;20245;-82
2021/03/01 06:07:51;;;;;;;1.52;1.00;;;17.10;51.20;;;;;;4899340;29;20171;-82
2021/03/01 06:10:20;;;;;;;1.50;0.90;;;17.10;51.20;;;;;;4914853;29;20193;-82
2021/03/01 06:12:46;;;;;;;2.75;0.98;;;17.10;51.10;;;;;;4914897;29;20191;-82
2021/03/01 06:15:12;;;;;;;1.70;1.05;;;17.10;51.10;;;;;;4928427;29;20216;-82
2021/03/01 06:17:39;;;;;;;2.90;1.27;;;17.00;50.40;;;;;;4953353;29;20221;-82
2021/03/01 06:20:10;;;;;;;3.33;1.10;;;17.10;51.20;;;;;;4968958;29;20162;-82
2021/03/01 06:22:46;;;;;;;2.17;1.40;;;17.10;50.90;;;;;;4935995;29;20212;-82
2021/03/01 06:25:19;;;;;;;2.00;1.10;;;17.00;51.10;;;;;;4936736;29;20197;-82
2021/03/01 06:27:59;;;;;;;2.33;1.05;;;17.00;51.20;;;;;;4935461;29;20181;-82
2021/03/01 06:30:39;;;;;;;2.13;1.00;;;17.00;51.20;;;;;;4952850;29;20157;-83
2021/03/01 06:33:10;;;;;;;2.80;1.20;;;17.00;51.40;;;;;;4957304;29;20158;-83
2021/03/01 06:35:45;;;;;;;1.65;1.10;;;17.00;50.90;;;;;;4953633;29;20173;-82
2021/03/01 06:38:26;;;;;;;2.35;0.95;;;17.10;51.10;;;;;;4970911;29;20161;-83
2021/03/01 06:41:18;;;;;;;2.33;1.08;;;17.10;50.70;;;;;;4938767;29;20270;-82
2021/03/01 06:44:03;;;;;;;2.47;1.13;;;17.10;50.80;;;;;;4939718;29;20201;-83
2021/03/01 06:46:42;;;;;;;1.92;1.17;;;17.10;50.70;;;;;;4941216;29;20170;-82
2021/03/01 06:49:24;;;;;;;1.92;1.10;;;17.10;50.70;;;;;;4958039;29;20653;-82
2021/03/01 06:51:57;;;;;;;2.20;0.95;;;17.10;50.70;;;;;;4955730;29;20162;-82
2021/03/01 06:54:23;;;;;;;1.60;1.20;;;17.10;50.70;;;;;;4941438;29;20179;-85
2021/03/01 06:56:53;;;;;;;1.40;1.00;;;17.10;50.30;;;;;;4940269;29;20250;-82
2021/03/01 06:59:20;;;;;;;2.33;1.15;;;17.20;50.50;;;;;;4940998;29;20180;-82
2021/03/01 07:01:50;;;;;;;1.48;1.05;;;17.10;50.50;;;;;;4940526;29;20189;-82
2021/03/01 07:04:27;;;;;;;1.73;1.13;;;17.10;50.50;;;;;;4941084;29;20284;-82
2021/03/01 07:06:55;;;;;;;3.53;0.93;;;17.10;50.60;;;;;;4941383;29;20261;-82
2021/03/01 07:09:24;;;;;;;3.75;1.10;;;17.10;50.50;;;;;;4941306;29;20173;-82
2021/03/01 07:11:53;;;;;;;5.03;1.30;;;17.10;50.10;;;;;;4942453;29;20183;-82
2021/03/01 07:14:20;;;;;;;5.65;1.50;;;17.20;50.20;;;;;;4942271;29;20252;-83
2021/03/01 07:16:57;;;;;;;2.80;0.93;;;17.20;50.20;;;;;;4941580;29;20173;-83
2021/03/01 07:19:29;;;;;;;9.15;1.60;;;17.20;50.50;;;;;;4940839;29;20261;-82
2021/03/01 07:22:09;;;;;;;15.90;1.33;;;17.20;50.40;;;;;;4940751;29;20169;-82
2021/03/01 07:24:36;;;;;;;4.75;1.30;;;17.20;50.30;;;;;;4940483;29;20168;-82
2021/03/01 07:27:12;;;;;;;5.50;1.00;;;17.20;50.20;;;;;;4939675;29;20173;-82
2021/03/01 07:29:37;;;;;;;4.13;1.20;;;17.20;50.10;;;;;;4939499;29;20162;-82
2021/03/01 07:32:09;;;;;;;4.43;1.10;;;17.10;50.00;;;;;;4939621;29;20180;-82
2021/03/01 07:34:35;;;;;;;3.70;1.20;;;17.20;49.80;;;;;;4940177;29;20169;-82
2021/03/01 07:37:01;;;;;;;2.97;1.02;;;17.30;49.80;;;;;;4938744;29;20193;-82
2021/03/01 07:39:31;;;;;;;2.42;1.08;;;17.20;50.00;;;;;;4938827;29;20228;-83
2021/03/01 07:41:58;;;;;;;1.17;0.90;;;17.20;50.00;;;;;;4939693;29;20204;-82
2021/03/01 07:44:32;;;;;;;1.33;0.70;;;17.30;49.90;;;;;;4954804;29;20154;-82
2021/03/01 07:47:01;;;;;;;1.65;0.85;;;17.20;50.00;;;;;;4940123;29;20166;-82
2021/03/01 07:49:48;;;;;;;1.98;1.13;;;17.20;49.60;;;;;;4955360;29;20154;-82
2021/03/01 07:52:25;;;;;;;2.08;0.80;;;17.30;49.60;;;;;;4955423;29;20221;-82
2021/03/01 07:54:56;;;;;;;2.08;1.20;;;17.30;49.50;;;;;;4956657;29;20620;-81
2021/03/01 07:57:38;;;;;;;4.30;1.00;;;17.30;49.60;;;;;;4956288;29;20172;-81
2021/03/01 08:00:33;;;;;;;4.13;0.95;;;17.30;49.20;;;;;;4940816;29;20169;-82
2021/03/01 08:03:21;;;;;;;1.42;0.95;;;17.30;49.00;;;;;;4957610;29;20197;-82
2021/03/01 08:06:11;;;;;;;3.00;0.98;;;17.40;48.90;;;;;;4956704;29;20173;-82
2021/03/01 08:08:54;;;;;;;2.10;1.10;;;17.30;48.90;;;;;;4939819;29;20178;-82
2021/03/01 08:11:42;;;;;;;2.30;0.70;;;17.40;48.90;;;;;;4956925;29;20525;-82
2021/03/01 08:14:48;;;;;;;1.85;1.08;;;17.50;48.80;;;;;;4953459;29;20221;-82
2021/03/01 08:17:26;;;;;;;2.30;0.95;;;17.50;48.80;;;;;;4937263;29;20177;-82
2021/03/01 08:20:14;;;;;;;2.60;1.30;;;17.50;48.80;;;;;;4954621;29;20162;-82
2021/03/01 08:23:10;;;;;;;2.60;1.02;;;17.50;48.70;;;;;;4937957;29;20225;-83
2021/03/01 08:25:51;;;;;;;2.03;1.08;;;17.40;48.70;;;;;;4938093;29;20201;-82
2021/03/01 08:28:24;;;;;;;1.05;0.80;;;17.40;48.80;;;;;;4937767;29;20193;-82
2021/03/01 08:30:56;;;;;;;3.40;1.00;;;17.50;48.60;;;;;;4938613;29;20629;-82
2021/03/01 08:33:35;;;;;;;1.80;1.00;;;17.60;48.40;;;;;;4922363;29;20178;-82
2021/03/01 08:36:03;;;;;;;1.75;0.80;;;17.60;48.10;;;;;;4926652;29;20192;-81
2021/03/01 08:38:54;;;;;;;2.53;0.98;;;17.60;48.20;;;;;;4934641;29;20190;-84
2021/03/01 08:41:42;;;;;;;2.47;1.15;;;17.60;48.10;;;;;;4917339;29;20162;-82
2021/03/01 08:44:19;;;;;;;0.80;0.80;;;17.50;48.50;;;;;;4902597;29;20186;-82
2021/03/01 08:46:49;;;;;;;0.80;0.70;;;17.50;48.60;;;;;;4917296;29;20175;-83
2021/03/01 08:49:26;;;;;;;3.00;1.10;;;17.50;48.40;;;;;;4916336;29;20151;-83
2021/03/01 08:51:53;;;;;;;2.20;1.02;;;17.50;48.60;;;;;;4902075;29;20177;-83
2021/03/01 08:54:34;;;;;;;1.70;0.90;;;17.60;48.30;;;;;;4919332;29;20175;-81
2021/03/01 08:57:12;;;;;;;1.98;1.00;;;17.60;47.80;;;;;;4902297;29;20185;-82
2021/03/01 08:59:42;;;;;;;1.50;1.00;;;17.70;47.80;;;;;;4934187;29;20170;-81
2021/03/01 09:02:20;;;;;;;2.75;1.02;;;17.50;48.00;;;;;;4935499;29;20206;-82
2021/03/01 09:05:07;;;;;;;1.65;0.80;;;17.60;48.00;;;;;;4951300;29;20435;-81
2021/03/01 09:07:49;;;;;;;2.38;1.10;;;17.70;47.80;;;;;;4936015;29;20265;-82
2021/03/01 09:10:16;;;;;;;2.80;1.10;;;17.60;47.70;;;;;;4939021;29;20237;-82
2021/03/01 09:12:52;;;;;;;2.30;0.80;;;17.60;47.90;;;;;;4938395;29;20181;-82
2021/03/01 09:15:21;;;;;;;1.98;1.00;;;17.60;48.00;;;;;;4953029;29;20227;-82
2021/03/01 09:17:52;;;;;;;1.25;1.00;;;17.60;47.80;;;;;;4923698;29;20182;-82
2021/03/01 09:20:28;;;;;;;1.90;1.00;;;17.60;47.70;;;;;;4924321;29;20202;-82
2021/03/01 09:22:58;;;;;;;3.00;1.10;;;17.60;47.70;;;;;;4924644;29;20612;-85
2021/03/01 09:25:29;;;;;;;2.17;0.80;;;17.70;47.70;;;;;;4924471;29;20197;-82
2021/03/01 09:28:12;;;;;;;2.20;1.17;;;17.70;47.50;;;;;;4923270;29;20150;-83
2021/03/01 09:30:48;;;;;;;1.25;0.93;;;17.70;47.60;;;;;;4938633;29;20173;-82
2021/03/01 09:33:14;;;;;;;1.77;1.00;;;17.70;47.70;;;;;;4920740;29;20189;-82
2021/03/01 09:35:40;;;;;;;1.85;1.23;;;17.70;47.70;;;;;;4921028;29;20202;-82
2021/03/01 09:38:07;;;;;;;1.77;0.90;;;17.70;47.60;;;;;;4923701;29;20174;-83
2021/03/01 09:40:40;;;;;;;1.75;1.00;;;17.70;47.40;;;;;;4924661;29;20183;-82
2021/03/01 09:43:06;;;;;;;2.25;1.20;;;17.70;47.20;;;;;;4924860;29;20202;-82
2021/03/01 09:45:51;;;;;;;0.90;0.85;;;17.80;47.40;;;;;;4922898;29;20185;-83
2021/03/01 09:48:24;;;;;;;1.48;0.85;;;17.70;47.40;;;;;;4931135;29;20253;-84
2021/03/01 09:50:50;;;;;;;1.52;1.05;;;17.80;47.20;;;;;;4909658;29;20174;-84
2021/03/01 09:53:20;;;;;;;2.45;1.10;;;17.90;47.00;;;;;;4908258;29;20233;-84
2021/03/01 09:55:51;;;;;;;1.33;1.00;;;17.80;47.10;;;;;;4911079;29;20234;-81
2021/03/01 09:58:28;;;;;;;1.67;1.17;;;17.90;47.00;;;;;;4926704;29;20174;-81
2021/03/01 10:14:26;;;;;;;4.03;0.98;;;17.80;47.10;;;;;;4945338;29;20692;-83
2021/03/01 10:24:14;;;;;;;2.83;1.00;;;17.90;46.80;;;;;;4938199;29;20284;-83
2021/03/01 10:27:12;;;;;;;1.38;0.80;;;17.90;46.70;;;;;;4923266;29;20186;-83
2021/03/01 10:32:25;;;;;;;1.02;0.80;;;17.90;46.70;;;;;;5235017;23;20229;-83
2021/03/01 10:34:55;;;;;;;2.30;1.00;;;17.90;46.70;;;;;;4914756;29;20241;-83
2021/03/01 10:37:36;;;;;;;1.67;0.88;;;18.00;46.70;;;;;;4940995;29;20155;-83
2021/03/01 10:40:06;;;;;;;2.70;0.90;;;17.90;46.60;;;;;;4924420;29;20203;-84
2021/03/01 10:42:45;;;;;;;1.17;0.85;;;17.90;46.60;;;;;;4940244;29;20205;-84
2021/03/01 10:45:20;;;;;;;1.65;1.00;;;17.90;46.60;;;;;;4941653;29;20240;-83
2021/03/01 10:48:07;;;;;;;1.00;0.90;;;17.90;46.60;;;;;;4840702;29;20191;-82
2021/03/01 10:50:46;;;;;;;1.73;0.90;;;17.90;46.70;;;;;;4892713;29;20199;-83
2021/03/01 10:53:35;;;;;;;2.55;1.10;;;18.00;46.60;;;;;;4871788;29;20192;-83
2021/03/01 10:56:07;;;;;;;1.13;0.88;;;18.00;46.60;;;;;;4884230;29;20746;-82
2021/03/01 10:58:52;;;;;;;2.83;1.02;;;17.90;46.70;;;;;;4866834;29;20184;-82
2021/03/01 11:01:37;;;;;;;2.78;0.80;;;17.90;46.80;;;;;;4884195;29;20611;-82
2021/03/01 11:04:03;;;;;;;3.20;1.20;;;17.90;46.70;;;;;;4882738;29;20204;-83
2021/03/01 11:06:42;;;;;;;2.90;0.90;;;17.90;46.60;;;;;;4883110;29;20183;-83
2021/03/01 11:09:49;;;;;;;2.13;1.00;;;17.90;46.80;;;;;;4881901;29;20171;-83
2021/03/01 11:12:21;;;;;;;1.92;1.10;;;17.90;46.60;;;;;;4881984;29;20251;-83
2021/03/01 11:14:50;;;;;;;1.42;0.90;;;17.90;46.40;;;;;;4894359;29;20192;-83
2021/03/01 11:17:17;;;;;;;1.95;1.02;;;17.90;46.60;;;;;;4879905;29;20239;-83
2021/03/01 11:19:49;;;;;;;2.67;1.05;;;17.90;46.70;;;;;;4896887;29;20196;-81
2021/03/01 11:22:23;;;;;;;2.15;1.00;;;17.90;46.70;;;;;;4886419;29;20270;-82
2021/03/01 11:24:51;;;;;;;2.80;1.20;;;17.90;46.60;;;;;;4891416;29;20281;-82
2021/03/01 11:27:23;;;;;;;2.15;0.80;;;17.90;46.60;;;;;;4914648;29;20541;-82
2021/03/01 11:29:50;;;;;;;2.20;0.90;;;18.00;46.40;;;;;;4913892;29;20171;-82
2021/03/01 11:32:16;;;;;;;1.95;0.98;;;18.00;46.20;;;;;;4929705;29;20218;-82
2021/03/01 11:34:42;;;;;;;2.45;0.90;;;17.90;46.20;;;;;;4927872;29;20254;-83
2021/03/01 11:37:07;;;;;;;1.80;1.10;;;18.00;46.20;;;;;;4913753;29;20254;-82
2021/03/01 11:39:37;;;;;;;4.63;1.15;;;18.00;46.20;;;;;;4915305;29;20193;-82
2021/03/01 11:42:05;;;;;;;1.83;0.90;;;17.90;46.30;;;;;;4915408;29;20226;-82
2021/03/01 11:44:31;;;;;;;1.88;1.23;;;18.00;46.20;;;;;;4914484;29;20175;-83
2021/03/01 11:46:57;;;;;;;1.50;1.00;;;18.00;46.20;;;;;;4914780;29;20165;-82
2021/03/01 11:49:32;;;;;;;2.90;1.00;;;17.90;46.30;;;;;;4927733;29;20693;-83
2021/03/01 11:51:58;;;;;;;1.83;1.10;;;17.90;46.20;;;;;;4899320;29;20198;-83
2021/03/01 11:54:23;;;;;;;2.78;1.00;;;18.00;46.10;;;;;;4914517;29;20601;-82
2021/03/01 11:56:52;;;;;;;2.88;1.10;;;17.90;46.00;;;;;;4925029;29;20163;-83
2021/03/01 11:59:24;;;;;;;2.70;1.17;;;17.90;46.00;;;;;;4932506;29;20641;-83
2021/03/01 12:01:50;;;;;;;3.22;1.10;;;17.90;46.30;;;;;;4928471;29;20276;-84
2021/03/01 12:04:21;;;;;;;4.80;1.02;;;17.90;46.30;;;;;;4914645;29;20260;-83
2021/03/01 12:06:47;;;;;;;3.35;1.10;;;17.90;46.20;;;;;;4931765;29;20165;-84
2021/03/01 12:09:14;;;;;;;2.53;0.80;;;17.90;46.30;;;;;;4917527;29;20182;-84
2021/03/01 12:11:40;;;;;;;2.38;0.98;;;17.90;46.20;;;;;;4917618;29;20177;-84
2021/03/01 12:14:16;;;;;;;5.13;1.13;;;17.90;46.20;;;;;;4917812;29;20194;-82
2021/03/01 12:16:46;;;;;;;1.75;1.00;;;17.90;46.20;;;;;;4934644;29;20185;-83
2021/03/01 12:19:15;;;;;;;4.32;1.17;;;17.90;46.30;;;;;;4933286;29;20162;-83
2021/03/01 12:21:46;;;;;;;3.40;0.98;;;17.90;46.40;;;;;;4934047;29;20241;-83
2021/03/01 12:24:14;;;;;;;1.67;1.00;;;17.90;46.50;;;;;;4949782;29;20186;-83
2021/03/01 12:26:41;;;;;;;3.22;0.95;;;17.90;46.30;;;;;;4934653;29;20147;-83
2021/03/01 12:29:08;;;;;;;1.55;1.00;;;17.90;46.20;;;;;;4949757;29;20158;-83
2021/03/01 12:31:37;;;;;;;1.45;0.93;;;17.90;46.20;;;;;;4948527;29;20161;-83
2021/03/01 12:34:11;;;;;;;1.88;1.15;;;17.90;46.10;;;;;;4905510;29;20245;-84
2021/03/01 12:36:41;;;;;;;4.05;1.10;;;18.00;46.00;;;;;;4917008;29;20193;-84
2021/03/01 12:39:12;;;;;;;3.22;1.27;;;18.00;45.80;;;;;;4920714;29;20238;-84
2021/03/01 12:41:39;;;;;;;1.15;0.82;;;18.10;45.80;;;;;;4910548;29;20213;-83
2021/03/01 12:44:06;;;;;;;3.35;1.00;;;18.00;45.80;;;;;;4919131;29;20232;-83
2021/03/01 12:46:33;;;;;;;2.47;0.80;;;17.90;45.90;;;;;;4936840;29;20190;-83
2021/03/01 12:49:11;;;;;;;2.17;1.10;;;18.00;45.80;;;;;;4930523;29;20171;-83
2021/03/01 12:51:50;;;;;;;1.83;1.10;;;18.00;45.70;;;;;;4951663;29;20251;-83
2021/03/01 12:54:19;;;;;;;1.48;0.90;;;18.00;45.60;;;;;;4905236;29;20170;-83
2021/03/01 12:56:48;;;;;;;2.58;1.00;;;18.00;45.50;;;;;;4919747;29;20162;-83
2021/03/01 12:59:24;;;;;;;2.45;0.90;;;18.00;45.50;;;;;;4942864;29;20177;-82
2021/03/01 13:01:58;;;;;;;1.60;0.90;;;18.00;46.40;;;;;;4948967;29;20162;-82
2021/03/01 13:04:34;;;;;;;2.17;1.13;;;18.00;45.60;;;;;;4930436;29;20212;-82
2021/03/01 13:07:01;;;;;;;1.58;1.00;;;18.00;45.70;;;;;;4947955;29;20641;-82
2021/03/01 13:09:29;;;;;;;4.13;1.00;;;18.00;45.60;;;;;;4903798;29;20175;-83
2021/03/01 13:11:58;;;;;;;3.60;1.02;;;17.90;45.70;;;;;;4929000;29;20186;-82
2021/03/01 13:14:24;;;;;;;1.33;0.90;;;17.90;45.80;;;;;;4914293;29;20155;-83
2021/03/01 13:16:51;;;;;;;3.22;1.00;;;17.90;45.90;;;;;;4914816;29;20166;-83
2021/03/01 13:19:17;;;;;;;2.13;1.23;;;17.90;45.30;;;;;;4940892;29;20170;-80
2021/03/01 13:22:04;;;;;;;2.63;1.13;;;17.90;45.70;;;;;;4947563;29;20177;-78
2021/03/01 13:24:40;;;;;;;5.65;1.27;;;17.90;45.50;;;;;;4930534;29;20197;-81
2021/03/01 13:27:08;;;;;;;2.88;0.80;;;17.90;45.50;;;;;;4938558;29;20617;-79
2021/03/01 13:29:33;;;;;;;2.75;1.08;;;17.90;45.70;;;;;;4931175;29;20182;-82